»·PEaware :: N416JK KTWF-KBOI

N416JK :: KTWF-KBOI

FLIGHT INFORMATION

Flight Status: Arrived
Operator: Privately registered:
United States
More flights under this callsign
Pilot: John K. (4202)
Aircraft: CESSNA 206 STATIONAIR
(C206)
More flights by this aircraft type
Origin: KTWF Joslin Fld-Magic Valley Regl
United States
Destination: KBOI Boise Air Terminal/Gowen
United States
More flights between these airports :: More routes between these airports
Route: LITKE V253 ATETY BOI
File this flight plan on PilotEdge
Remarks:
Altitude:
(Current/Filed)
10,000ft
Speed:
(Current/Filed)
140kts
Departed: 28-Jul-18 09:11 AM
Arrived: 28-Jul-18 09:54 AM
Distance/Time
Traveled:
101nm/0:43
Distance/Time
To Go:
Arrived

Flight Plot

Page will automatically refresh every two minutes.

Flight plan parsing failed; only flown route is shown


Map Options




Map Legend


Flown Route
Filed Route
Departure Airport
Arrival Airport
Navaid (VOR, NDB)
Fix

Horizontal Profiles

Position Reports

Time Latitude Longitude Heading Altitude Ground
Speed
28-Jul-18 09:08 42.483863 -114.487164 226 4153ft 0kts
28-Jul-18 09:09 42.482758 -114.486468 128 4153ft 0kts
28-Jul-18 09:10 42.481963 -114.485455 202 4154ft 0kts
28-Jul-18 09:11 42.481222 -114.485931 248 4154ft 0kts
28-Jul-18 09:12 42.489484 -114.498214 305 4494ft 97kts
28-Jul-18 09:13 42.509291 -114.531220 307 5338ft 127kts
28-Jul-18 09:14 42.534109 -114.570963 308 5624ft 147kts
28-Jul-18 09:15 42.558897 -114.610410 307 6338ft 134kts
28-Jul-18 09:16 42.582796 -114.648570 307 7136ft 132kts
28-Jul-18 09:17 42.606389 -114.685415 308 7921ft 131kts
28-Jul-18 09:18 42.630004 -114.722103 308 8707ft 131kts
28-Jul-18 09:19 42.653634 -114.758852 307 9492ft 131kts
28-Jul-18 09:20 42.678637 -114.797824 305 9987ft 153kts
28-Jul-18 09:21 42.706981 -114.841988 305 9989ft 156kts
28-Jul-18 09:22 42.735050 -114.885813 305 9989ft 156kts
28-Jul-18 09:23 42.762983 -114.929519 305 9989ft 155kts
28-Jul-18 09:24 42.790925 -114.973315 305 9988ft 155kts
28-Jul-18 09:25 42.818708 -115.016943 306 9982ft 154kts
28-Jul-18 09:26 42.846653 -115.060875 307 9973ft 152kts
28-Jul-18 09:27 42.873914 -115.103789 307 9961ft 152kts
28-Jul-18 09:28 42.901315 -115.146452 307 9949ft 151kts
28-Jul-18 09:29 42.927944 -115.188444 310 9940ft 147kts
28-Jul-18 09:30 42.954073 -115.229651 310 9936ft 145kts
28-Jul-18 09:31 42.980366 -115.271252 310 9936ft 144kts
28-Jul-18 09:32 43.006075 -115.311811 306 9936ft 148kts
28-Jul-18 09:33 43.032420 -115.353778 305 9972ft 149kts
28-Jul-18 09:34 43.059264 -115.396512 305 9972ft 151kts
28-Jul-18 09:35 43.086222 -115.439452 305 9972ft 151kts
28-Jul-18 09:36 43.113444 -115.482866 305 9972ft 151kts
28-Jul-18 09:37 43.140065 -115.525382 305 9972ft 151kts
28-Jul-18 09:38 43.168296 -115.570552 306 9360ft 163kts
28-Jul-18 09:39 43.196894 -115.616329 306 8767ft 162kts
28-Jul-18 09:40 43.225874 -115.662832 306 8062ft 163kts
28-Jul-18 09:41 43.255311 -115.710131 307 7314ft 163kts
28-Jul-18 09:42 43.283573 -115.755499 307 6971ft 148kts
28-Jul-18 09:43 43.309125 -115.796701 307 6973ft 142kts
28-Jul-18 09:44 43.333750 -115.836451 307 6973ft 141kts
28-Jul-18 09:45 43.358773 -115.876892 307 6973ft 141kts
28-Jul-18 09:46 43.386672 -115.922042 308 6352ft 157kts
28-Jul-18 09:47 43.415013 -115.967968 308 5514ft 160kts
28-Jul-18 09:48 43.442510 -116.012600 308 4931ft 152kts
28-Jul-18 09:49 43.469441 -116.056399 309 4250ft 152kts
28-Jul-18 09:50 43.494869 -116.097633 309 4144ft 127kts
28-Jul-18 09:51 43.517579 -116.129267 312 4195ft 108kts
28-Jul-18 09:52 43.535058 -116.154212 307 3922ft 87kts
28-Jul-18 09:53 43.549239 -116.181297 295 3500ft 86kts
28-Jul-18 09:54 43.558908 -116.210134 293 2888ft 80kts
28-Jul-18 09:55 43.563134 -116.224204 215 2875ft 0kts
28-Jul-18 09:56 43.564990 -116.231668 300 2875ft 44kts
28-Jul-18 09:57 43.565043 -116.242039 171 2875ft 19kts
28-Jul-18 09:58 43.563247 -116.240383 261 2875ft 0kts

Navigation Log

Ident Type
Flight plan parsing failed, navigation log unavailable